sensor_id;sensor_type;location;lat;lon;timestamp;temperature;humidity
11647;DHT22;5880;52.342;9.662;2023-04-25T00:01:28;11.20;60.30
11647;DHT22;5880;52.342;9.662;2023-04-25T00:03:54;11.10;61.00
11647;DHT22;5880;52.342;9.662;2023-04-25T00:06:20;11.10;60.40
11647;DHT22;5880;52.342;9.662;2023-04-25T00:08:45;11.10;60.50
11647;DHT22;5880;52.342;9.662;2023-04-25T00:11:11;11.00;60.60
11647;DHT22;5880;52.342;9.662;2023-04-25T00:13:37;11.00;60.60
11647;DHT22;5880;52.342;9.662;2023-04-25T00:16:03;11.00;60.70
11647;DHT22;5880;52.342;9.662;2023-04-25T00:18:29;11.00;60.70
11647;DHT22;5880;52.342;9.662;2023-04-25T00:20:55;11.00;60.80
11647;DHT22;5880;52.342;9.662;2023-04-25T00:23:21;11.00;61.00
11647;DHT22;5880;52.342;9.662;2023-04-25T00:25:48;11.00;61.10
11647;DHT22;5880;52.342;9.662;2023-04-25T00:28:18;11.00;61.30
11647;DHT22;5880;52.342;9.662;2023-04-25T00:30:43;11.70;61.40
11647;DHT22;5880;52.342;9.662;2023-04-25T00:33:09;11.00;61.10
11647;DHT22;5880;52.342;9.662;2023-04-25T00:35:36;11.00;61.20
11647;DHT22;5880;52.342;9.662;2023-04-25T00:38:02;11.00;61.30
11647;DHT22;5880;52.342;9.662;2023-04-25T00:40:28;11.10;61.40
11647;DHT22;5880;52.342;9.662;2023-04-25T00:42:54;11.10;61.40
11647;DHT22;5880;52.342;9.662;2023-04-25T00:45:20;11.10;61.40
11647;DHT22;5880;52.342;9.662;2023-04-25T00:47:46;11.10;61.40
11647;DHT22;5880;52.342;9.662;2023-04-25T00:50:13;11.10;61.30
11647;DHT22;5880;52.342;9.662;2023-04-25T00:52:43;11.10;61.30
11647;DHT22;5880;52.342;9.662;2023-04-25T00:55:11;11.10;61.30
11647;DHT22;5880;52.342;9.662;2023-04-25T00:57:38;11.10;61.40
11647;DHT22;5880;52.342;9.662;2023-04-25T01:00:05;11.10;61.20
11647;DHT22;5880;52.342;9.662;2023-04-25T01:02:33;11.10;61.10
11647;DHT22;5880;52.342;9.662;2023-04-25T01:04:59;11.10;61.20
11647;DHT22;5880;52.342;9.662;2023-04-25T01:07:25;11.10;61.30
11647;DHT22;5880;52.342;9.662;2023-04-25T01:09:52;11.10;61.40
11647;DHT22;5880;52.342;9.662;2023-04-25T01:12:17;11.10;61.40
11647;DHT22;5880;52.342;9.662;2023-04-25T01:14:43;11.10;61.50
11647;DHT22;5880;52.342;9.662;2023-04-25T01:17:13;11.00;61.60
11647;DHT22;5880;52.342;9.662;2023-04-25T01:19:40;11.00;61.70
11647;DHT22;5880;52.342;9.662;2023-04-25T01:22:06;11.00;61.50
11647;DHT22;5880;52.342;9.662;2023-04-25T01:24:32;11.10;61.70
11647;DHT22;5880;52.342;9.662;2023-04-25T01:27:00;11.00;61.60
11647;DHT22;5880;52.342;9.662;2023-04-25T01:29:28;11.00;61.80
11647;DHT22;5880;52.342;9.662;2023-04-25T01:31:54;11.00;61.80
11647;DHT22;5880;52.342;9.662;2023-04-25T01:34:20;11.00;61.90
11647;DHT22;5880;52.342;9.662;2023-04-25T01:36:49;11.00;61.90
11647;DHT22;5880;52.342;9.662;2023-04-25T01:39:19;11.00;62.00
11647;DHT22;5880;52.342;9.662;2023-04-25T01:41:46;11.00;61.80
11647;DHT22;5880;52.342;9.662;2023-04-25T01:44:13;11.00;61.80
11647;DHT22;5880;52.342;9.662;2023-04-25T01:46:40;11.00;61.70
11647;DHT22;5880;52.342;9.662;2023-04-25T01:49:05;11.00;61.90
11647;DHT22;5880;52.342;9.662;2023-04-25T01:51:31;11.00;61.90
11647;DHT22;5880;52.342;9.662;2023-04-25T01:53:57;11.00;61.80
11647;DHT22;5880;52.342;9.662;2023-04-25T01:56:23;11.00;61.90
11647;DHT22;5880;52.342;9.662;2023-04-25T01:58:49;11.00;61.70
11647;DHT22;5880;52.342;9.662;2023-04-25T02:01:15;11.00;61.60
11647;DHT22;5880;52.342;9.662;2023-04-25T02:03:40;11.00;61.70
11647;DHT22;5880;52.342;9.662;2023-04-25T02:06:06;11.00;61.90
11647;DHT22;5880;52.342;9.662;2023-04-25T02:08:32;11.00;61.90
11647;DHT22;5880;52.342;9.662;2023-04-25T02:10:58;11.00;61.80
11647;DHT22;5880;52.342;9.662;2023-04-25T02:13:23;11.00;62.00
11647;DHT22;5880;52.342;9.662;2023-04-25T02:15:49;10.90;61.90
11647;DHT22;5880;52.342;9.662;2023-04-25T02:18:14;10.90;62.50
11647;DHT22;5880;52.342;9.662;2023-04-25T02:20:42;10.90;62.30
11647;DHT22;5880;52.342;9.662;2023-04-25T02:23:08;10.90;62.50
11647;DHT22;5880;52.342;9.662;2023-04-25T02:25:34;10.80;62.80
11647;DHT22;5880;52.342;9.662;2023-04-25T02:27:59;10.80;62.70
11647;DHT22;5880;52.342;9.662;2023-04-25T02:30:25;10.80;63.30
11647;DHT22;5880;52.342;9.662;2023-04-25T02:32:51;10.80;62.80
11647;DHT22;5880;52.342;9.662;2023-04-25T02:35:16;10.70;62.70
11647;DHT22;5880;52.342;9.662;2023-04-25T02:37:42;10.70;62.60
11647;DHT22;5880;52.342;9.662;2023-04-25T02:40:09;10.70;62.70
11647;DHT22;5880;52.342;9.662;2023-04-25T02:42:35;10.70;62.70
11647;DHT22;5880;52.342;9.662;2023-04-25T02:45:01;10.70;62.80
11647;DHT22;5880;52.342;9.662;2023-04-25T02:47:28;10.60;62.60
11647;DHT22;5880;52.342;9.662;2023-04-25T02:49:53;10.60;62.70
11647;DHT22;5880;52.342;9.662;2023-04-25T02:52:19;10.60;62.70
11647;DHT22;5880;52.342;9.662;2023-04-25T02:54:46;10.60;62.80
11647;DHT22;5880;52.342;9.662;2023-04-25T02:57:12;10.60;62.80
11647;DHT22;5880;52.342;9.662;2023-04-25T02:59:37;10.60;62.70
11647;DHT22;5880;52.342;9.662;2023-04-25T03:02:03;10.60;62.80
11647;DHT22;5880;52.342;9.662;2023-04-25T03:04:29;10.60;62.80
11647;DHT22;5880;52.342;9.662;2023-04-25T03:06:54;10.60;62.90
11647;DHT22;5880;52.342;9.662;2023-04-25T03:09:20;10.60;62.90
11647;DHT22;5880;52.342;9.662;2023-04-25T03:11:46;10.60;62.80
11647;DHT22;5880;52.342;9.662;2023-04-25T03:14:12;10.60;62.90
11647;DHT22;5880;52.342;9.662;2023-04-25T03:16:39;10.60;63.00
11647;DHT22;5880;52.342;9.662;2023-04-25T03:19:05;10.60;62.90
11647;DHT22;5880;52.342;9.662;2023-04-25T03:21:32;10.60;62.90
11647;DHT22;5880;52.342;9.662;2023-04-25T03:24:00;10.60;63.10
11647;DHT22;5880;52.342;9.662;2023-04-25T03:26:27;10.60;63.10
11647;DHT22;5880;52.342;9.662;2023-04-25T03:28:52;10.50;63.00
11647;DHT22;5880;52.342;9.662;2023-04-25T03:31:18;10.50;62.90
11647;DHT22;5880;52.342;9.662;2023-04-25T03:33:44;10.50;63.00
11647;DHT22;5880;52.342;9.662;2023-04-25T03:36:09;10.50;63.10
11647;DHT22;5880;52.342;9.662;2023-04-25T03:38:35;10.50;63.10
11647;DHT22;5880;52.342;9.662;2023-04-25T03:41:02;10.50;63.20
11647;DHT22;5880;52.342;9.662;2023-04-25T03:43:27;10.50;63.40
11647;DHT22;5880;52.342;9.662;2023-04-25T03:45:53;10.50;63.40
11647;DHT22;5880;52.342;9.662;2023-04-25T03:48:19;10.50;63.50
11647;DHT22;5880;52.342;9.662;2023-04-25T03:50:50;10.50;63.40
11647;DHT22;5880;52.342;9.662;2023-04-25T03:53:15;10.50;63.50
11647;DHT22;5880;52.342;9.662;2023-04-25T03:55:41;10.50;63.40
11647;DHT22;5880;52.342;9.662;2023-04-25T03:58:06;10.40;63.10
11647;DHT22;5880;52.342;9.662;2023-04-25T04:00:33;10.50;63.20
11647;DHT22;5880;52.342;9.662;2023-04-25T04:02:59;10.40;63.10
11647;DHT22;5880;52.342;9.662;2023-04-25T04:05:25;10.40;63.10
11647;DHT22;5880;52.342;9.662;2023-04-25T04:07:50;10.40;63.10
11647;DHT22;5880;52.342;9.662;2023-04-25T04:10:16;10.40;63.30
11647;DHT22;5880;52.342;9.662;2023-04-25T04:12:42;10.40;63.30
11647;DHT22;5880;52.342;9.662;2023-04-25T04:15:09;10.40;63.30
11647;DHT22;5880;52.342;9.662;2023-04-25T04:17:35;10.40;63.30
11647;DHT22;5880;52.342;9.662;2023-04-25T04:20:01;10.40;63.30
11647;DHT22;5880;52.342;9.662;2023-04-25T04:22:26;10.40;63.30
11647;DHT22;5880;52.342;9.662;2023-04-25T04:24:52;10.40;63.30
11647;DHT22;5880;52.342;9.662;2023-04-25T04:27:18;10.40;63.20
11647;DHT22;5880;52.342;9.662;2023-04-25T04:29:45;10.30;63.30
11647;DHT22;5880;52.342;9.662;2023-04-25T04:32:12;10.40;63.20
11647;DHT22;5880;52.342;9.662;2023-04-25T04:34:38;10.40;63.10
11647;DHT22;5880;52.342;9.662;2023-04-25T04:37:05;10.40;63.00
11647;DHT22;5880;52.342;9.662;2023-04-25T04:39:32;10.40;63.10
11647;DHT22;5880;52.342;9.662;2023-04-25T04:42:02;10.30;63.00
11647;DHT22;5880;52.342;9.662;2023-04-25T04:44:29;10.30;63.00
11647;DHT22;5880;52.342;9.662;2023-04-25T04:46:58;10.40;62.90
11647;DHT22;5880;52.342;9.662;2023-04-25T04:49:24;10.30;62.90
11647;DHT22;5880;52.342;9.662;2023-04-25T04:51:50;10.30;63.00
11647;DHT22;5880;52.342;9.662;2023-04-25T04:54:15;10.30;63.00
11647;DHT22;5880;52.342;9.662;2023-04-25T04:56:41;10.30;63.00
11647;DHT22;5880;52.342;9.662;2023-04-25T04:59:07;10.40;63.10
11647;DHT22;5880;52.342;9.662;2023-04-25T05:01:33;10.40;63.10
11647;DHT22;5880;52.342;9.662;2023-04-25T05:04:01;10.40;63.20
11647;DHT22;5880;52.342;9.662;2023-04-25T05:06:28;10.40;63.20
11647;DHT22;5880;52.342;9.662;2023-04-25T05:08:57;10.40;63.20
11647;DHT22;5880;52.342;9.662;2023-04-25T05:11:23;10.40;63.20
11647;DHT22;5880;52.342;9.662;2023-04-25T05:13:52;10.40;63.10
11647;DHT22;5880;52.342;9.662;2023-04-25T05:16:18;10.40;63.10
11647;DHT22;5880;52.342;9.662;2023-04-25T05:18:44;10.40;63.00
11647;DHT22;5880;52.342;9.662;2023-04-25T05:21:10;10.40;63.00
11647;DHT22;5880;52.342;9.662;2023-04-25T05:23:35;10.50;63.50
11647;DHT22;5880;52.342;9.662;2023-04-25T05:26:01;10.50;64.00
11647;DHT22;5880;52.342;9.662;2023-04-25T05:28:27;10.60;63.40
11647;DHT22;5880;52.342;9.662;2023-04-25T05:30:52;10.60;63.30
11647;DHT22;5880;52.342;9.662;2023-04-25T05:33:18;10.70;63.40
11647;DHT22;5880;52.342;9.662;2023-04-25T05:35:44;10.70;63.30
11647;DHT22;5880;52.342;9.662;2023-04-25T05:38:10;10.80;63.50
11647;DHT22;5880;52.342;9.662;2023-04-25T05:40:36;10.90;63.20
11647;DHT22;5880;52.342;9.662;2023-04-25T05:43:02;10.90;62.90
11647;DHT22;5880;52.342;9.662;2023-04-25T05:45:27;11.00;62.70
11647;DHT22;5880;52.342;9.662;2023-04-25T05:47:53;11.10;62.50
11647;DHT22;5880;52.342;9.662;2023-04-25T05:50:19;11.00;62.20
11647;DHT22;5880;52.342;9.662;2023-04-25T05:52:44;11.10;62.30
11647;DHT22;5880;52.342;9.662;2023-04-25T05:55:10;11.10;62.20
11647;DHT22;5880;52.342;9.662;2023-04-25T05:57:35;11.10;62.00
11647;DHT22;5880;52.342;9.662;2023-04-25T06:00:01;11.10;61.80
11647;DHT22;5880;52.342;9.662;2023-04-25T06:02:28;11.20;62.70
11647;DHT22;5880;52.342;9.662;2023-04-25T06:04:54;11.20;61.70
11647;DHT22;5880;52.342;9.662;2023-04-25T06:07:19;11.20;61.70
11647;DHT22;5880;52.342;9.662;2023-04-25T06:09:45;11.20;61.60
11647;DHT22;5880;52.342;9.662;2023-04-25T06:12:11;11.20;61.80
11647;DHT22;5880;52.342;9.662;2023-04-25T06:14:37;11.30;62.50
11647;DHT22;5880;52.342;9.662;2023-04-25T06:17:03;11.30;63.50
11647;DHT22;5880;52.342;9.662;2023-04-25T06:19:34;11.50;64.70
11647;DHT22;5880;52.342;9.662;2023-04-25T06:22:01;11.70;66.10
11647;DHT22;5880;52.342;9.662;2023-04-25T06:24:27;12.10;66.60
11647;DHT22;5880;52.342;9.662;2023-04-25T06:26:53;12.30;66.30
11647;DHT22;5880;52.342;9.662;2023-04-25T06:29:19;12.70;65.20
11647;DHT22;5880;52.342;9.662;2023-04-25T06:31:45;12.90;63.90
11647;DHT22;5880;52.342;9.662;2023-04-25T06:34:11;13.20;64.10
11647;DHT22;5880;52.342;9.662;2023-04-25T06:36:36;13.50;64.20
11647;DHT22;5880;52.342;9.662;2023-04-25T06:39:02;13.70;63.60
11647;DHT22;5880;52.342;9.662;2023-04-25T06:41:28;13.90;62.20
11647;DHT22;5880;52.342;9.662;2023-04-25T06:43:54;14.10;61.60
11647;DHT22;5880;52.342;9.662;2023-04-25T06:46:19;14.30;61.40
11647;DHT22;5880;52.342;9.662;2023-04-25T06:48:45;14.40;61.60
11647;DHT22;5880;52.342;9.662;2023-04-25T06:51:11;14.60;62.50
11647;DHT22;5880;52.342;9.662;2023-04-25T06:53:38;14.80;63.80
11647;DHT22;5880;52.342;9.662;2023-04-25T06:56:05;15.20;63.20
11647;DHT22;5880;52.342;9.662;2023-04-25T06:58:31;15.40;60.70
11647;DHT22;5880;52.342;9.662;2023-04-25T07:00:57;15.60;58.20
11647;DHT22;5880;52.342;9.662;2023-04-25T07:03:22;15.60;57.10
11647;DHT22;5880;52.342;9.662;2023-04-25T07:05:49;15.60;57.20
11647;DHT22;5880;52.342;9.662;2023-04-25T07:08:15;15.70;57.10
11647;DHT22;5880;52.342;9.662;2023-04-25T07:10:41;15.60;56.00
11647;DHT22;5880;52.342;9.662;2023-04-25T07:13:07;15.60;54.70
11647;DHT22;5880;52.342;9.662;2023-04-25T07:15:33;15.50;53.40
11647;DHT22;5880;52.342;9.662;2023-04-25T07:17:58;15.30;52.90
11647;DHT22;5880;52.342;9.662;2023-04-25T07:20:24;15.10;52.50
11647;DHT22;5880;52.342;9.662;2023-04-25T07:22:50;14.80;52.30
11647;DHT22;5880;52.342;9.662;2023-04-25T07:25:16;14.60;52.10
11647;DHT22;5880;52.342;9.662;2023-04-25T07:27:42;14.30;52.10
11647;DHT22;5880;52.342;9.662;2023-04-25T07:30:09;14.10;52.10
11647;DHT22;5880;52.342;9.662;2023-04-25T07:32:35;13.90;52.80
11647;DHT22;5880;52.342;9.662;2023-04-25T07:35:01;13.70;53.00
11647;DHT22;5880;52.342;9.662;2023-04-25T07:37:27;13.60;52.80
11647;DHT22;5880;52.342;9.662;2023-04-25T07:39:52;13.40;52.90
11647;DHT22;5880;52.342;9.662;2023-04-25T07:42:18;13.30;52.90
11647;DHT22;5880;52.342;9.662;2023-04-25T07:44:44;13.20;52.50
11647;DHT22;5880;52.342;9.662;2023-04-25T07:47:10;13.10;53.00
11647;DHT22;5880;52.342;9.662;2023-04-25T07:49:36;13.00;53.10
11647;DHT22;5880;52.342;9.662;2023-04-25T07:52:03;12.90;53.30
11647;DHT22;5880;52.342;9.662;2023-04-25T07:54:31;12.80;53.00
11647;DHT22;5880;52.342;9.662;2023-04-25T07:56:57;12.80;53.60
11647;DHT22;5880;52.342;9.662;2023-04-25T07:59:24;12.70;54.00
11647;DHT22;5880;52.342;9.662;2023-04-25T08:01:50;12.70;54.20
11647;DHT22;5880;52.342;9.662;2023-04-25T08:04:16;12.70;54.70
11647;DHT22;5880;52.342;9.662;2023-04-25T08:06:42;12.70;54.90
11647;DHT22;5880;52.342;9.662;2023-04-25T08:09:08;12.70;54.40
11647;DHT22;5880;52.342;9.662;2023-04-25T08:11:35;12.70;54.60
11647;DHT22;5880;52.342;9.662;2023-04-25T08:14:02;12.70;54.30
11647;DHT22;5880;52.342;9.662;2023-04-25T08:16:28;12.70;54.60
11647;DHT22;5880;52.342;9.662;2023-04-25T08:18:54;12.50;55.70
11647;DHT22;5880;52.342;9.662;2023-04-25T08:21:20;12.90;56.30
11647;DHT22;5880;52.342;9.662;2023-04-25T08:23:45;13.10;56.60
11647;DHT22;5880;52.342;9.662;2023-04-25T08:26:11;13.30;56.70
11647;DHT22;5880;52.342;9.662;2023-04-25T08:28:37;13.50;55.60
11647;DHT22;5880;52.342;9.662;2023-04-25T08:31:03;13.60;54.80
11647;DHT22;5880;52.342;9.662;2023-04-25T08:33:29;13.70;54.10
11647;DHT22;5880;52.342;9.662;2023-04-25T08:35:55;13.80;52.80
11647;DHT22;5880;52.342;9.662;2023-04-25T08:38:21;13.80;52.30
11647;DHT22;5880;52.342;9.662;2023-04-25T08:40:49;13.90;52.20
11647;DHT22;5880;52.342;9.662;2023-04-25T08:43:19;13.90;51.30
11647;DHT22;5880;52.342;9.662;2023-04-25T08:45:46;13.90;51.80
11647;DHT22;5880;52.342;9.662;2023-04-25T08:48:14;13.90;51.80
11647;DHT22;5880;52.342;9.662;2023-04-25T08:50:49;13.90;50.00
11647;DHT22;5880;52.342;9.662;2023-04-25T08:53:18;13.90;49.00
11647;DHT22;5880;52.342;9.662;2023-04-25T08:55:48;13.80;49.60
11647;DHT22;5880;52.342;9.662;2023-04-25T08:58:15;13.70;49.40
11647;DHT22;5880;52.342;9.662;2023-04-25T09:00:43;13.70;48.30
11647;DHT22;5880;52.342;9.662;2023-04-25T09:03:08;13.60;48.70
11647;DHT22;5880;52.342;9.662;2023-04-25T09:05:35;13.40;49.20
11647;DHT22;5880;52.342;9.662;2023-04-25T09:08:02;13.40;50.30
11647;DHT22;5880;52.342;9.662;2023-04-25T09:10:28;13.30;50.90
11647;DHT22;5880;52.342;9.662;2023-04-25T09:13:11;13.30;51.20
11647;DHT22;5880;52.342;9.662;2023-04-25T09:15:49;13.30;51.10
11647;DHT22;5880;52.342;9.662;2023-04-25T09:20:57;13.40;52.30
11647;DHT22;5880;52.342;9.662;2023-04-25T09:23:30;13.50;52.90
11647;DHT22;5880;52.342;9.662;2023-04-25T09:26:03;13.50;52.50
11647;DHT22;5880;52.342;9.662;2023-04-25T09:28:32;13.60;52.30
11647;DHT22;5880;52.342;9.662;2023-04-25T09:30:58;13.70;52.00
11647;DHT22;5880;52.342;9.662;2023-04-25T09:33:28;13.80;51.00
11647;DHT22;5880;52.342;9.662;2023-04-25T09:36:05;13.90;50.20
11647;DHT22;5880;52.342;9.662;2023-04-25T09:38:43;13.90;48.70
11647;DHT22;5880;52.342;9.662;2023-04-25T09:41:11;14.00;48.30
11647;DHT22;5880;52.342;9.662;2023-04-25T09:43:37;14.00;48.50
11647;DHT22;5880;52.342;9.662;2023-04-25T09:46:10;14.10;48.30
11647;DHT22;5880;52.342;9.662;2023-04-25T09:48:37;14.10;47.40
11647;DHT22;5880;52.342;9.662;2023-04-25T09:53:28;14.10;48.10
11647;DHT22;5880;52.342;9.662;2023-04-25T09:55:55;14.20;47.80
11647;DHT22;5880;52.342;9.662;2023-04-25T09:58:23;14.20;47.90
11647;DHT22;5880;52.342;9.662;2023-04-25T10:00:51;14.30;47.70
11647;DHT22;5880;52.342;9.662;2023-04-25T10:03:17;14.30;47.60
11647;DHT22;5880;52.342;9.662;2023-04-25T10:05:46;14.40;47.30
11647;DHT22;5880;52.342;9.662;2023-04-25T10:08:14;14.50;45.40
11647;DHT22;5880;52.342;9.662;2023-04-25T10:10:42;14.50;46.20
11647;DHT22;5880;52.342;9.662;2023-04-25T10:13:08;14.40;45.90
11647;DHT22;5880;52.342;9.662;2023-04-25T10:15:35;14.50;46.10
11647;DHT22;5880;52.342;9.662;2023-04-25T10:18:05;14.50;45.90
11647;DHT22;5880;52.342;9.662;2023-04-25T10:20:32;14.30;45.10
11647;DHT22;5880;52.342;9.662;2023-04-25T10:23:07;14.30;45.60
11647;DHT22;5880;52.342;9.662;2023-04-25T10:25:39;14.20;44.50
11647;DHT22;5880;52.342;9.662;2023-04-25T10:28:05;14.10;45.60
11647;DHT22;5880;52.342;9.662;2023-04-25T10:30:31;14.00;45.60
11647;DHT22;5880;52.342;9.662;2023-04-25T10:32:58;13.90;45.40
11647;DHT22;5880;52.342;9.662;2023-04-25T10:35:27;13.80;44.10
11647;DHT22;5880;52.342;9.662;2023-04-25T10:38:05;13.70;44.90
11647;DHT22;5880;52.342;9.662;2023-04-25T10:40:35;13.60;44.60
11647;DHT22;5880;52.342;9.662;2023-04-25T10:43:33;13.50;46.50
11647;DHT22;5880;52.342;9.662;2023-04-25T10:46:00;13.40;46.30
11647;DHT22;5880;52.342;9.662;2023-04-25T10:48:28;13.40;47.80
11647;DHT22;5880;52.342;9.662;2023-04-25T10:51:10;13.50;48.60
11647;DHT22;5880;52.342;9.662;2023-04-25T10:53:40;13.60;47.40
11647;DHT22;5880;52.342;9.662;2023-04-25T10:56:26;13.70;47.40
11647;DHT22;5880;52.342;9.662;2023-04-25T10:59:13;13.80;46.10
11647;DHT22;5880;52.342;9.662;2023-04-25T11:01:43;13.80;46.50
11647;DHT22;5880;52.342;9.662;2023-04-25T11:07:04;13.80;45.30
11647;DHT22;5880;52.342;9.662;2023-04-25T11:09:40;13.70;45.80
11647;DHT22;5880;52.342;9.662;2023-04-25T11:12:08;13.60;46.60
11647;DHT22;5880;52.342;9.662;2023-04-25T11:14:35;13.60;47.40
11647;DHT22;5880;52.342;9.662;2023-04-25T11:17:01;13.60;47.80
11647;DHT22;5880;52.342;9.662;2023-04-25T11:19:29;13.70;48.30
11647;DHT22;5880;52.342;9.662;2023-04-25T11:21:57;13.70;47.20
11647;DHT22;5880;52.342;9.662;2023-04-25T11:24:31;13.80;48.20
11647;DHT22;5880;52.342;9.662;2023-04-25T11:26:58;13.90;47.00
11647;DHT22;5880;52.342;9.662;2023-04-25T11:29:28;13.90;47.00
11647;DHT22;5880;52.342;9.662;2023-04-25T11:31:55;14.00;45.10
11647;DHT22;5880;52.342;9.662;2023-04-25T11:34:25;13.90;45.50
11647;DHT22;5880;52.342;9.662;2023-04-25T11:36:51;13.90;45.90
11647;DHT22;5880;52.342;9.662;2023-04-25T11:39:18;13.80;45.60
11647;DHT22;5880;52.342;9.662;2023-04-25T11:41:46;13.70;45.50
11647;DHT22;5880;52.342;9.662;2023-04-25T11:44:12;13.70;45.50
11647;DHT22;5880;52.342;9.662;2023-04-25T11:46:40;13.60;44.90
11647;DHT22;5880;52.342;9.662;2023-04-25T11:49:07;13.50;45.40
11647;DHT22;5880;52.342;9.662;2023-04-25T11:54:06;13.30;45.20
11647;DHT22;5880;52.342;9.662;2023-04-25T11:56:32;13.20;45.90
11647;DHT22;5880;52.342;9.662;2023-04-25T11:59:03;13.00;46.30
11647;DHT22;5880;52.342;9.662;2023-04-25T12:01:31;13.00;46.80
11647;DHT22;5880;52.342;9.662;2023-04-25T12:03:58;13.00;47.10
11647;DHT22;5880;52.342;9.662;2023-04-25T12:06:39;12.90;46.80
11647;DHT22;5880;52.342;9.662;2023-04-25T12:09:11;12.90;47.40
11647;DHT22;5880;52.342;9.662;2023-04-25T12:11:42;13.00;47.00
11647;DHT22;5880;52.342;9.662;2023-04-25T12:14:27;13.00;47.20
11647;DHT22;5880;52.342;9.662;2023-04-25T12:16:56;13.00;47.50
11647;DHT22;5880;52.342;9.662;2023-04-25T12:19:26;13.10;48.10
11647;DHT22;5880;52.342;9.662;2023-04-25T12:22:00;13.10;47.60
11647;DHT22;5880;52.342;9.662;2023-04-25T12:24:28;13.20;45.50
11647;DHT22;5880;52.342;9.662;2023-04-25T12:27:01;13.20;45.90
11647;DHT22;5880;52.342;9.662;2023-04-25T12:29:29;13.30;46.30
11647;DHT22;5880;52.342;9.662;2023-04-25T12:31:57;13.30;45.60
11647;DHT22;5880;52.342;9.662;2023-04-25T12:34:23;13.30;45.60
11647;DHT22;5880;52.342;9.662;2023-04-25T12:36:50;13.40;46.10
11647;DHT22;5880;52.342;9.662;2023-04-25T12:39:18;13.40;45.80
11647;DHT22;5880;52.342;9.662;2023-04-25T12:41:49;13.50;45.80
11647;DHT22;5880;52.342;9.662;2023-04-25T12:44:16;13.60;46.00
11647;DHT22;5880;52.342;9.662;2023-04-25T12:46:42;13.60;45.80
11647;DHT22;5880;52.342;9.662;2023-04-25T12:49:09;13.60;45.40
11647;DHT22;5880;52.342;9.662;2023-04-25T12:51:35;13.60;45.10
11647;DHT22;5880;52.342;9.662;2023-04-25T12:54:03;13.60;44.90
11647;DHT22;5880;52.342;9.662;2023-04-25T12:56:31;13.50;45.10
11647;DHT22;5880;52.342;9.662;2023-04-25T12:58:57;13.50;44.90
11647;DHT22;5880;52.342;9.662;2023-04-25T13:01:24;13.40;44.70
11647;DHT22;5880;52.342;9.662;2023-04-25T13:03:52;13.40;44.70
11647;DHT22;5880;52.342;9.662;2023-04-25T13:06:19;13.30;44.90
11647;DHT22;5880;52.342;9.662;2023-04-25T13:08:46;13.10;44.80
11647;DHT22;5880;52.342;9.662;2023-04-25T13:11:12;13.00;44.90
11647;DHT22;5880;52.342;9.662;2023-04-25T13:13:38;12.90;45.30
11647;DHT22;5880;52.342;9.662;2023-04-25T13:16:05;12.80;45.10
11647;DHT22;5880;52.342;9.662;2023-04-25T13:18:32;12.60;45.30
11647;DHT22;5880;52.342;9.662;2023-04-25T13:20:58;12.50;45.80
11647;DHT22;5880;52.342;9.662;2023-04-25T13:23:27;12.30;46.30
11647;DHT22;5880;52.342;9.662;2023-04-25T13:25:54;12.20;46.70
11647;DHT22;5880;52.342;9.662;2023-04-25T13:28:21;12.10;47.30
11647;DHT22;5880;52.342;9.662;2023-04-25T13:30:47;12.00;47.80
11647;DHT22;5880;52.342;9.662;2023-04-25T13:33:14;11.90;48.30
11647;DHT22;5880;52.342;9.662;2023-04-25T13:35:40;12.00;48.80
11647;DHT22;5880;52.342;9.662;2023-04-25T13:38:07;12.00;49.00
11647;DHT22;5880;52.342;9.662;2023-04-25T13:40:34;12.10;49.70
11647;DHT22;5880;52.342;9.662;2023-04-25T13:43:01;12.10;49.80
11647;DHT22;5880;52.342;9.662;2023-04-25T13:45:27;12.20;50.20
11647;DHT22;5880;52.342;9.662;2023-04-25T13:47:52;12.30;50.10
11647;DHT22;5880;52.342;9.662;2023-04-25T13:50:18;12.50;49.80
11647;DHT22;5880;52.342;9.662;2023-04-25T13:52:44;12.60;49.40
11647;DHT22;5880;52.342;9.662;2023-04-25T13:55:10;12.70;49.20
11647;DHT22;5880;52.342;9.662;2023-04-25T13:57:36;12.80;48.70
11647;DHT22;5880;52.342;9.662;2023-04-25T14:00:03;12.90;48.80
11647;DHT22;5880;52.342;9.662;2023-04-25T14:02:36;12.90;48.60
11647;DHT22;5880;52.342;9.662;2023-04-25T14:05:03;13.00;48.20
11647;DHT22;5880;52.342;9.662;2023-04-25T14:07:29;12.90;48.00
11647;DHT22;5880;52.342;9.662;2023-04-25T14:09:56;12.90;47.50
11647;DHT22;5880;52.342;9.662;2023-04-25T14:12:24;12.80;47.30
11647;DHT22;5880;52.342;9.662;2023-04-25T14:14:50;12.70;47.70
11647;DHT22;5880;52.342;9.662;2023-04-25T14:17:16;12.60;47.70
11647;DHT22;5880;52.342;9.662;2023-04-25T14:19:42;12.50;48.40
11647;DHT22;5880;52.342;9.662;2023-04-25T14:22:09;12.40;49.10
11647;DHT22;5880;52.342;9.662;2023-04-25T14:24:34;12.40;49.50
11647;DHT22;5880;52.342;9.662;2023-04-25T14:27:00;12.40;49.70
11647;DHT22;5880;52.342;9.662;2023-04-25T14:29:26;12.50;50.10
11647;DHT22;5880;52.342;9.662;2023-04-25T14:31:52;12.40;50.00
11647;DHT22;5880;52.342;9.662;2023-04-25T14:34:18;12.50;50.00
11647;DHT22;5880;52.342;9.662;2023-04-25T14:36:44;12.60;50.30
11647;DHT22;5880;52.342;9.662;2023-04-25T14:39:10;12.70;50.60
11647;DHT22;5880;52.342;9.662;2023-04-25T14:41:35;12.80;50.60
11647;DHT22;5880;52.342;9.662;2023-04-25T14:44:01;12.90;50.60
11647;DHT22;5880;52.342;9.662;2023-04-25T14:46:27;13.00;50.50
11647;DHT22;5880;52.342;9.662;2023-04-25T14:48:52;13.10;49.70
11647;DHT22;5880;52.342;9.662;2023-04-25T14:51:18;13.10;49.10
11647;DHT22;5880;52.342;9.662;2023-04-25T14:53:44;13.20;49.10
11647;DHT22;5880;52.342;9.662;2023-04-25T14:56:09;13.30;48.70
11647;DHT22;5880;52.342;9.662;2023-04-25T14:58:35;13.30;47.90
11647;DHT22;5880;52.342;9.662;2023-04-25T15:01:01;13.30;47.80
11647;DHT22;5880;52.342;9.662;2023-04-25T15:03:27;13.40;47.10
11647;DHT22;5880;52.342;9.662;2023-04-25T15:05:54;13.30;45.70
11647;DHT22;5880;52.342;9.662;2023-04-25T15:08:20;13.30;45.80
11647;DHT22;5880;52.342;9.662;2023-04-25T15:10:46;13.30;46.00
11647;DHT22;5880;52.342;9.662;2023-04-25T15:13:12;13.30;45.70
11647;DHT22;5880;52.342;9.662;2023-04-25T15:15:38;13.20;46.00
11647;DHT22;5880;52.342;9.662;2023-04-25T15:18:04;13.20;46.20
11647;DHT22;5880;52.342;9.662;2023-04-25T15:20:29;13.10;46.50
11647;DHT22;5880;52.342;9.662;2023-04-25T15:22:55;13.00;46.40
11647;DHT22;5880;52.342;9.662;2023-04-25T15:25:22;13.00;46.90
11647;DHT22;5880;52.342;9.662;2023-04-25T15:27:47;13.00;47.40
11647;DHT22;5880;52.342;9.662;2023-04-25T15:30:17;13.00;47.70
11647;DHT22;5880;52.342;9.662;2023-04-25T15:32:44;13.10;48.10
11647;DHT22;5880;52.342;9.662;2023-04-25T15:35:10;13.10;48.20
11647;DHT22;5880;52.342;9.662;2023-04-25T15:37:36;13.20;48.20
11647;DHT22;5880;52.342;9.662;2023-04-25T15:40:07;13.30;48.10
11647;DHT22;5880;52.342;9.662;2023-04-25T15:42:36;13.30;47.10
11647;DHT22;5880;52.342;9.662;2023-04-25T15:45:04;13.30;47.10
11647;DHT22;5880;52.342;9.662;2023-04-25T15:47:31;13.30;46.20
11647;DHT22;5880;52.342;9.662;2023-04-25T15:49:58;13.30;46.40
11647;DHT22;5880;52.342;9.662;2023-04-25T15:52:24;13.30;46.40
11647;DHT22;5880;52.342;9.662;2023-04-25T15:54:50;13.20;45.90